sensor_id;sensor_type;location;lat;lon;timestamp;pressure;altitude;pressure_sealevel;temperature;humidity
4617;BME280;2321;42.704;23.384;2022-10-16T00:00:42;96089.28;;;10.40;100.00
4617;BME280;2321;42.704;23.384;2022-10-16T00:03:10;96097.09;;;10.41;100.00
4617;BME280;2321;42.704;23.384;2022-10-16T00:05:42;96095.69;;;10.30;100.00
4617;BME280;2321;42.704;23.384;2022-10-16T00:08:11;96104.25;;;10.09;100.00
4617;BME280;2321;42.704;23.384;2022-10-16T00:10:38;96094.75;;;10.06;100.00
4617;BME280;2321;42.704;23.384;2022-10-16T00:13:06;96105.25;;;9.99;100.00
4617;BME280;2321;42.704;23.384;2022-10-16T00:15:34;96104.91;;;10.02;100.00
4617;BME280;2321;42.704;23.384;2022-10-16T00:18:03;96101.91;;;9.97;100.00
4617;BME280;2321;42.704;23.384;2022-10-16T00:20:33;96107.91;;;9.99;100.00
4617;BME280;2321;42.704;23.384;2022-10-16T00:23:03;96115.06;;;9.99;100.00
4617;BME280;2321;42.704;23.384;2022-10-16T00:25:31;96112.91;;;9.94;100.00
4617;BME280;2321;42.704;23.384;2022-10-16T00:27:59;96111.94;;;9.87;100.00
4617;BME280;2321;42.704;23.384;2022-10-16T00:30:26;96110.44;;;9.84;100.00
4617;BME280;2321;42.704;23.384;2022-10-16T00:32:54;96119.41;;;9.91;100.00
4617;BME280;2321;42.704;23.384;2022-10-16T00:35:21;96118.91;;;9.96;100.00
4617;BME280;2321;42.704;23.384;2022-10-16T00:37:48;96116.72;;;9.91;100.00
4617;BME280;2321;42.704;23.384;2022-10-16T00:40:17;96126.72;;;9.89;100.00
4617;BME280;2321;42.704;23.384;2022-10-16T00:42:43;96122.53;;;10.03;100.00
4617;BME280;2321;42.704;23.384;2022-10-16T00:45:11;96111.75;;;9.88;100.00
4617;BME280;2321;42.704;23.384;2022-10-16T00:47:40;96119.91;;;9.78;100.00
4617;BME280;2321;42.704;23.384;2022-10-16T00:50:16;96110.91;;;9.88;100.00
4617;BME280;2321;42.704;23.384;2022-10-16T00:52:47;96109.78;;;9.90;100.00
4617;BME280;2321;42.704;23.384;2022-10-16T00:55:16;96106.28;;;9.90;100.00
4617;BME280;2321;42.704;23.384;2022-10-16T00:57:44;96117.25;;;9.87;100.00
4617;BME280;2321;42.704;23.384;2022-10-16T01:00:14;96109.97;;;9.80;100.00
4617;BME280;2321;42.704;23.384;2022-10-16T01:02:42;96113.78;;;9.78;100.00
4617;BME280;2321;42.704;23.384;2022-10-16T01:05:09;96127.41;;;9.75;100.00
4617;BME280;2321;42.704;23.384;2022-10-16T01:07:43;96133.22;;;9.70;100.00
4617;BME280;2321;42.704;23.384;2022-10-16T01:10:20;96135.91;;;9.62;100.00
4617;BME280;2321;42.704;23.384;2022-10-16T01:12:53;96135.25;;;9.59;100.00
4617;BME280;2321;42.704;23.384;2022-10-16T01:15:25;96130.94;;;9.50;100.00
4617;BME280;2321;42.704;23.384;2022-10-16T01:17:57;96122.94;;;9.42;100.00
4617;BME280;2321;42.704;23.384;2022-10-16T01:20:30;96124.28;;;9.37;100.00
4617;BME280;2321;42.704;23.384;2022-10-16T01:23:05;96109.81;;;9.23;100.00
4617;BME280;2321;42.704;23.384;2022-10-16T01:25:50;96102.38;;;9.10;100.00
4617;BME280;2321;42.704;23.384;2022-10-16T01:28:23;96110.16;;;9.03;100.00
4617;BME280;2321;42.704;23.384;2022-10-16T01:30:55;96114.47;;;8.96;100.00
4617;BME280;2321;42.704;23.384;2022-10-16T01:33:30;96117.28;;;8.86;100.00
4617;BME280;2321;42.704;23.384;2022-10-16T01:36:02;96112.13;;;8.85;100.00
4617;BME280;2321;42.704;23.384;2022-10-16T01:38:34;96107.47;;;8.78;100.00
4617;BME280;2321;42.704;23.384;2022-10-16T01:41:07;96109.66;;;8.83;100.00
4617;BME280;2321;42.704;23.384;2022-10-16T01:43:39;96117.44;;;8.76;100.00
4617;BME280;2321;42.704;23.384;2022-10-16T01:46:08;96118.72;;;8.72;100.00
4617;BME280;2321;42.704;23.384;2022-10-16T01:48:37;96129.50;;;8.62;100.00
4617;BME280;2321;42.704;23.384;2022-10-16T01:51:07;96123.66;;;8.58;100.00
4617;BME280;2321;42.704;23.384;2022-10-16T01:53:36;96115.81;;;8.48;100.00
4617;BME280;2321;42.704;23.384;2022-10-16T01:56:07;96129.34;;;8.64;100.00
4617;BME280;2321;42.704;23.384;2022-10-16T01:58:40;96121.38;;;8.64;100.00
4617;BME280;2321;42.704;23.384;2022-10-16T02:01:10;96128.50;;;8.63;100.00
4617;BME280;2321;42.704;23.384;2022-10-16T02:03:40;96130.66;;;8.59;100.00
4617;BME280;2321;42.704;23.384;2022-10-16T02:06:09;96140.78;;;8.64;100.00
4617;BME280;2321;42.704;23.384;2022-10-16T02:08:37;96137.25;;;8.55;100.00
4617;BME280;2321;42.704;23.384;2022-10-16T02:11:06;96141.88;;;8.53;100.00
4617;BME280;2321;42.704;23.384;2022-10-16T02:13:39;96137.75;;;8.59;100.00
4617;BME280;2321;42.704;23.384;2022-10-16T02:16:09;96158.13;;;8.50;100.00
4617;BME280;2321;42.704;23.384;2022-10-16T02:18:37;96155.94;;;8.37;100.00
4617;BME280;2321;42.704;23.384;2022-10-16T02:21:10;96144.94;;;8.32;100.00
4617;BME280;2321;42.704;23.384;2022-10-16T02:23:45;96156.41;;;8.32;100.00
4617;BME280;2321;42.704;23.384;2022-10-16T02:26:20;96156.56;;;8.31;100.00
4617;BME280;2321;42.704;23.384;2022-10-16T02:28:55;96152.03;;;8.23;100.00
4617;BME280;2321;42.704;23.384;2022-10-16T02:31:28;96156.78;;;8.11;100.00
4617;BME280;2321;42.704;23.384;2022-10-16T02:34:00;96161.63;;;8.15;100.00
4617;BME280;2321;42.704;23.384;2022-10-16T02:36:28;96153.53;;;8.25;100.00
4617;BME280;2321;42.704;23.384;2022-10-16T02:38:56;96156.78;;;8.11;100.00
4617;BME280;2321;42.704;23.384;2022-10-16T02:41:26;96157.41;;;8.04;100.00
4617;BME280;2321;42.704;23.384;2022-10-16T02:43:54;96152.44;;;8.01;100.00
4617;BME280;2321;42.704;23.384;2022-10-16T02:46:21;96157.41;;;8.04;100.00
4617;BME280;2321;42.704;23.384;2022-10-16T02:48:48;96157.63;;;8.11;100.00
4617;BME280;2321;42.704;23.384;2022-10-16T02:51:15;96164.41;;;8.05;100.00
4617;BME280;2321;42.704;23.384;2022-10-16T02:53:42;96161.53;;;7.99;100.00
4617;BME280;2321;42.704;23.384;2022-10-16T02:56:09;96162.06;;;8.02;100.00
4617;BME280;2321;42.704;23.384;2022-10-16T02:58:36;96171.88;;;8.10;100.00
4617;BME280;2321;42.704;23.384;2022-10-16T03:01:05;96177.69;;;8.14;100.00
4617;BME280;2321;42.704;23.384;2022-10-16T03:03:31;96173.00;;;8.07;100.00
4617;BME280;2321;42.704;23.384;2022-10-16T03:05:58;96173.81;;;8.00;100.00
4617;BME280;2321;42.704;23.384;2022-10-16T03:08:25;96170.69;;;8.04;100.00
4617;BME280;2321;42.704;23.384;2022-10-16T03:10:52;96172.97;;;7.99;100.00
4617;BME280;2321;42.704;23.384;2022-10-16T03:13:19;96144.19;;;7.78;100.00
4617;BME280;2321;42.704;23.384;2022-10-16T03:15:47;96174.97;;;7.97;100.00
4617;BME280;2321;42.704;23.384;2022-10-16T03:18:15;96180.03;;;8.17;100.00
4617;BME280;2321;42.704;23.384;2022-10-16T03:20:42;96181.06;;;8.24;100.00
4617;BME280;2321;42.704;23.384;2022-10-16T03:23:09;96181.44;;;8.30;100.00
4617;BME280;2321;42.704;23.384;2022-10-16T03:25:36;96192.16;;;8.20;100.00
4617;BME280;2321;42.704;23.384;2022-10-16T03:28:03;96181.06;;;8.24;100.00
4617;BME280;2321;42.704;23.384;2022-10-16T03:30:30;96193.28;;;8.17;100.00
4617;BME280;2321;42.704;23.384;2022-10-16T03:32:57;96185.13;;;8.10;100.00
4617;BME280;2321;42.704;23.384;2022-10-16T03:35:26;96179.13;;;8.00;100.00
4617;BME280;2321;42.704;23.384;2022-10-16T03:37:53;96184.47;;;8.08;100.00
4617;BME280;2321;42.704;23.384;2022-10-16T03:40:19;96182.69;;;8.17;100.00
4617;BME280;2321;42.704;23.384;2022-10-16T03:42:46;96180.66;;;8.11;100.00
4617;BME280;2321;42.704;23.384;2022-10-16T03:45:14;96178.63;;;8.04;100.00
4617;BME280;2321;42.704;23.384;2022-10-16T03:47:40;96181.25;;;7.96;100.00
4617;BME280;2321;42.704;23.384;2022-10-16T03:50:08;96191.00;;;7.95;100.00
4617;BME280;2321;42.704;23.384;2022-10-16T03:52:36;96182.28;;;8.03;100.00
4617;BME280;2321;42.704;23.384;2022-10-16T03:55:04;96175.72;;;7.89;100.00
4617;BME280;2321;42.704;23.384;2022-10-16T03:57:31;96180.94;;;7.72;100.00
4617;BME280;2321;42.704;23.384;2022-10-16T03:59:58;96173.28;;;7.69;100.00
4617;BME280;2321;42.704;23.384;2022-10-16T04:02:25;96180.47;;;7.59;100.00
4617;BME280;2321;42.704;23.384;2022-10-16T04:04:52;96179.59;;;7.50;100.00
4617;BME280;2321;42.704;23.384;2022-10-16T04:07:19;96183.91;;;7.51;100.00
4617;BME280;2321;42.704;23.384;2022-10-16T04:09:47;96175.38;;;7.39;100.00
4617;BME280;2321;42.704;23.384;2022-10-16T04:12:14;96179.59;;;7.32;100.00
4617;BME280;2321;42.704;23.384;2022-10-16T04:14:41;96186.09;;;7.37;100.00
4617;BME280;2321;42.704;23.384;2022-10-16T04:17:08;96184.44;;;7.36;100.00
4617;BME280;2321;42.704;23.384;2022-10-16T04:19:35;96190.50;;;7.28;100.00
4617;BME280;2321;42.704;23.384;2022-10-16T04:22:02;96195.44;;;7.23;100.00
4617;BME280;2321;42.704;23.384;2022-10-16T04:24:29;96195.72;;;7.20;100.00
4617;BME280;2321;42.704;23.384;2022-10-16T04:26:57;96189.06;;;7.16;100.00
4617;BME280;2321;42.704;23.384;2022-10-16T04:29:24;96192.31;;;7.10;100.00
4617;BME280;2321;42.704;23.384;2022-10-16T04:31:51;96190.28;;;7.22;100.00
4617;BME280;2321;42.704;23.384;2022-10-16T04:34:18;96188.53;;;7.30;100.00
4617;BME280;2321;42.704;23.384;2022-10-16T04:36:47;96198.59;;;7.27;100.00
4617;BME280;2321;42.704;23.384;2022-10-16T04:39:14;96192.00;;;7.31;100.00
4617;BME280;2321;42.704;23.384;2022-10-16T04:41:41;96196.88;;;7.36;100.00
4617;BME280;2321;42.704;23.384;2022-10-16T04:44:10;96197.06;;;7.43;100.00
4617;BME280;2321;42.704;23.384;2022-10-16T04:46:37;96201.56;;;7.42;100.00
4617;BME280;2321;42.704;23.384;2022-10-16T04:49:04;96211.69;;;7.28;100.00
4617;BME280;2321;42.704;23.384;2022-10-16T04:51:31;96216.31;;;7.26;100.00
4617;BME280;2321;42.704;23.384;2022-10-16T04:53:58;96211.31;;;7.23;100.00
4617;BME280;2321;42.704;23.384;2022-10-16T04:56:25;96215.91;;;7.21;100.00
4617;BME280;2321;42.704;23.384;2022-10-16T04:58:52;96219.47;;;7.12;100.00
4617;BME280;2321;42.704;23.384;2022-10-16T05:01:20;96223.25;;;7.27;100.00
4617;BME280;2321;42.704;23.384;2022-10-16T05:03:47;96221.44;;;7.28;100.00
4617;BME280;2321;42.704;23.384;2022-10-16T05:06:14;96234.78;;;7.36;100.00
4617;BME280;2321;42.704;23.384;2022-10-16T05:08:41;96235.06;;;7.33;100.00
4617;BME280;2321;42.704;23.384;2022-10-16T05:11:08;96228.88;;;7.43;100.00
4617;BME280;2321;42.704;23.384;2022-10-16T05:13:35;96233.03;;;7.45;100.00
4617;BME280;2321;42.704;23.384;2022-10-16T05:16:02;96233.25;;;7.34;100.00
4617;BME280;2321;42.704;23.384;2022-10-16T05:18:30;96231.75;;;7.31;100.00
4617;BME280;2321;42.704;23.384;2022-10-16T05:20:57;96236.06;;;7.32;100.00
4617;BME280;2321;42.704;23.384;2022-10-16T05:23:24;96242.34;;;7.31;100.00
4617;BME280;2321;42.704;23.384;2022-10-16T05:25:54;96242.34;;;7.49;100.00
4617;BME280;2321;42.704;23.384;2022-10-16T05:28:23;96242.88;;;7.53;100.00
4617;BME280;2321;42.704;23.384;2022-10-16T05:30:51;96242.94;;;7.61;100.00
4617;BME280;2321;42.704;23.384;2022-10-16T05:33:19;96239.69;;;7.68;100.00
4617;BME280;2321;42.704;23.384;2022-10-16T05:35:48;96239.75;;;7.76;100.00
4617;BME280;2321;42.704;23.384;2022-10-16T05:38:15;96237.56;;;7.71;100.00
4617;BME280;2321;42.704;23.384;2022-10-16T05:40:42;96239.13;;;7.82;100.00
4617;BME280;2321;42.704;23.384;2022-10-16T05:43:09;96242.19;;;7.88;100.00
4617;BME280;2321;42.704;23.384;2022-10-16T05:45:36;96248.16;;;7.90;100.00
4617;BME280;2321;42.704;23.384;2022-10-16T05:48:03;96252.84;;;7.96;100.00
4617;BME280;2321;42.704;23.384;2022-10-16T05:50:30;96255.63;;;7.94;100.00
4617;BME280;2321;42.704;23.384;2022-10-16T05:52:59;96256.56;;;8.03;100.00
4617;BME280;2321;42.704;23.384;2022-10-16T05:55:26;96261.59;;;8.15;100.00
4617;BME280;2321;42.704;23.384;2022-10-16T05:57:54;96264.59;;;8.20;100.00
4617;BME280;2321;42.704;23.384;2022-10-16T06:00:21;96270.91;;;8.19;100.00
4617;BME280;2321;42.704;23.384;2022-10-16T06:02:48;96245.28;;;8.10;100.00
4617;BME280;2321;42.704;23.384;2022-10-16T06:05:14;96273.66;;;8.36;100.00
4617;BME280;2321;42.704;23.384;2022-10-16T06:07:41;96284.00;;;8.47;100.00
4617;BME280;2321;42.704;23.384;2022-10-16T06:10:10;96287.25;;;8.59;100.00
4617;BME280;2321;42.704;23.384;2022-10-16T06:12:37;96285.31;;;8.62;100.00
4617;BME280;2321;42.704;23.384;2022-10-16T06:15:04;96286.50;;;8.67;100.00
4617;BME280;2321;42.704;23.384;2022-10-16T06:17:31;96293.69;;;8.83;100.00
4617;BME280;2321;42.704;23.384;2022-10-16T06:19:58;96298.03;;;8.93;100.00
4617;BME280;2321;42.704;23.384;2022-10-16T06:22:25;96290.44;;;8.98;100.00
4617;BME280;2321;42.704;23.384;2022-10-16T06:24:52;96291.63;;;9.04;100.00
4617;BME280;2321;42.704;23.384;2022-10-16T06:27:20;62246.03;;;20.93;100.00
4617;BME280;2321;42.704;23.384;2022-10-16T06:29:47;62246.03;;;-150.68;100.00
4617;BME280;2321;42.704;23.384;2022-10-16T06:32:14;62246.03;;;-150.68;100.00
4617;BME280;2321;42.704;23.384;2022-10-16T06:34:41;62246.03;;;-150.68;100.00
4617;BME280;2321;42.704;23.384;2022-10-16T06:37:08;62246.03;;;-150.68;100.00
4617;BME280;2321;42.704;23.384;2022-10-16T06:39:35;62246.03;;;-150.68;100.00
4617;BME280;2321;42.704;23.384;2022-10-16T06:42:02;62246.03;;;-150.68;100.00
4617;BME280;2321;42.704;23.384;2022-10-16T06:44:30;62246.03;;;-150.68;100.00
4617;BME280;2321;42.704;23.384;2022-10-16T06:46:57;62246.03;;;-150.68;100.00
4617;BME280;2321;42.704;23.384;2022-10-16T06:49:24;62246.03;;;-150.68;100.00
4617;BME280;2321;42.704;23.384;2022-10-16T06:51:51;62246.03;;;-150.68;100.00
4617;BME280;2321;42.704;23.384;2022-10-16T06:54:18;62246.03;;;-150.68;100.00
4617;BME280;2321;42.704;23.384;2022-10-16T06:56:45;62246.03;;;-150.68;100.00
4617;BME280;2321;42.704;23.384;2022-10-16T06:59:12;62246.03;;;-150.68;100.00
4617;BME280;2321;42.704;23.384;2022-10-16T07:01:40;62246.03;;;-150.68;100.00
4617;BME280;2321;42.704;23.384;2022-10-16T07:04:07;62246.03;;;-150.68;100.00
4617;BME280;2321;42.704;23.384;2022-10-16T07:06:34;62246.03;;;-150.68;100.00
4617;BME280;2321;42.704;23.384;2022-10-16T07:09:03;62246.03;;;-150.68;100.00
4617;BME280;2321;42.704;23.384;2022-10-16T07:11:31;62246.03;;;-150.68;100.00
4617;BME280;2321;42.704;23.384;2022-10-16T07:13:58;62246.03;;;-150.68;100.00
4617;BME280;2321;42.704;23.384;2022-10-16T07:16:27;62246.03;;;-150.68;100.00
4617;BME280;2321;42.704;23.384;2022-10-16T07:18:56;62246.03;;;-150.68;100.00
4617;BME280;2321;42.704;23.384;2022-10-16T07:21:25;62246.03;;;-150.68;100.00
4617;BME280;2321;42.704;23.384;2022-10-16T07:26:21;62246.03;;;-150.68;100.00
4617;BME280;2321;42.704;23.384;2022-10-16T07:28:49;62246.03;;;-150.68;100.00
4617;BME280;2321;42.704;23.384;2022-10-16T07:31:18;62246.03;;;-150.68;100.00
4617;BME280;2321;42.704;23.384;2022-10-16T07:33:46;62246.03;;;-150.68;100.00
4617;BME280;2321;42.704;23.384;2022-10-16T07:36:15;62246.03;;;-150.68;100.00
4617;BME280;2321;42.704;23.384;2022-10-16T07:41:11;62246.03;;;-150.68;100.00
4617;BME280;2321;42.704;23.384;2022-10-16T07:43:39;62246.03;;;-150.68;100.00
4617;BME280;2321;42.704;23.384;2022-10-16T07:46:06;62246.03;;;-150.68;100.00
4617;BME280;2321;42.704;23.384;2022-10-16T07:48:34;62246.03;;;-150.68;100.00
4617;BME280;2321;42.704;23.384;2022-10-16T07:51:02;62246.03;;;-150.68;100.00
4617;BME280;2321;42.704;23.384;2022-10-16T07:53:31;62246.03;;;22.25;100.00
4617;BME280;2321;42.704;23.384;2022-10-16T07:56:00;62246.03;;;21.24;100.00
4617;BME280;2321;42.704;23.384;2022-10-16T07:58:27;62246.03;;;21.24;100.00
4617;BME280;2321;42.704;23.384;2022-10-16T08:00:55;62246.03;;;22.25;100.00
4617;BME280;2321;42.704;23.384;2022-10-16T08:05:49;62246.03;;;-150.68;100.00
4617;BME280;2321;42.704;23.384;2022-10-16T08:08:17;62246.03;;;-150.68;100.00
4617;BME280;2321;42.704;23.384;2022-10-16T08:13:13;62246.03;;;-150.68;100.00
4617;BME280;2321;42.704;23.384;2022-10-16T08:15:40;62246.03;;;-150.68;100.00
4617;BME280;2321;42.704;23.384;2022-10-16T08:18:09;62246.03;;;-150.68;100.00
4617;BME280;2321;42.704;23.384;2022-10-16T08:20:37;62246.03;;;192.81;100.00
4617;BME280;2321;42.704;23.384;2022-10-16T08:23:04;62246.03;;;21.58;100.00
4617;BME280;2321;42.704;23.384;2022-10-16T08:25:31;62246.03;;;-150.68;100.00
4617;BME280;2321;42.704;23.384;2022-10-16T08:27:59;62246.03;;;26.27;100.00
4617;BME280;2321;42.704;23.384;2022-10-16T08:30:26;62246.03;;;21.08;100.00
4617;BME280;2321;42.704;23.384;2022-10-16T08:32:53;62246.03;;;22.25;100.00
4617;BME280;2321;42.704;23.384;2022-10-16T08:35:20;62246.03;;;21.58;100.00
4617;BME280;2321;42.704;23.384;2022-10-16T08:37:47;62246.03;;;21.24;100.00
4617;BME280;2321;42.704;23.384;2022-10-16T08:40:18;62246.03;;;21.24;100.00
4617;BME280;2321;42.704;23.384;2022-10-16T08:45:34;62246.03;;;21.24;100.00
4617;BME280;2321;42.704;23.384;2022-10-16T08:48:17;62246.03;;;20.95;100.00
4617;BME280;2321;42.704;23.384;2022-10-16T08:53:17;62246.03;;;192.81;100.00
4617;BME280;2321;42.704;23.384;2022-10-16T08:55:48;62246.03;;;21.24;100.00
4617;BME280;2321;42.704;23.384;2022-10-16T08:58:17;62246.03;;;22.25;100.00
4617;BME280;2321;42.704;23.384;2022-10-16T09:03:20;62246.03;;;23.59;100.00
4617;BME280;2321;42.704;23.384;2022-10-16T09:06:06;62246.03;;;23.59;100.00
4617;BME280;2321;42.704;23.384;2022-10-16T09:08:41;62246.03;;;20.91;100.00
4617;BME280;2321;42.704;23.384;2022-10-16T09:11:15;62246.03;;;-150.68;100.00
4617;BME280;2321;42.704;23.384;2022-10-16T09:13:50;62246.03;;;22.25;100.00
4617;BME280;2321;42.704;23.384;2022-10-16T09:16:24;62246.03;;;26.27;100.00
4617;BME280;2321;42.704;23.384;2022-10-16T09:18:59;62246.03;;;42.38;100.00
4617;BME280;2321;42.704;23.384;2022-10-16T09:21:30;62246.03;;;192.81;100.00
4617;BME280;2321;42.704;23.384;2022-10-16T09:23:58;62246.03;;;20.93;100.00
4617;BME280;2321;42.704;23.384;2022-10-16T09:26:26;62246.03;;;192.81;100.00
4617;BME280;2321;42.704;23.384;2022-10-16T09:28:53;62246.03;;;63.85;100.00
4617;BME280;2321;42.704;23.384;2022-10-16T09:31:22;62246.03;;;21.24;100.00
4617;BME280;2321;42.704;23.384;2022-10-16T09:33:53;62246.03;;;21.08;100.00
4617;BME280;2321;42.704;23.384;2022-10-16T09:36:23;62246.03;;;22.25;100.00
4617;BME280;2321;42.704;23.384;2022-10-16T09:39:02;62246.03;;;23.59;100.00
4617;BME280;2321;42.704;23.384;2022-10-16T09:41:30;62246.03;;;22.25;100.00
4617;BME280;2321;42.704;23.384;2022-10-16T09:43:59;62246.03;;;22.25;100.00
4617;BME280;2321;42.704;23.384;2022-10-16T09:46:30;62246.03;;;22.25;100.00
4617;BME280;2321;42.704;23.384;2022-10-16T09:48:59;62246.03;;;-150.68;100.00
4617;BME280;2321;42.704;23.384;2022-10-16T09:51:28;62246.03;;;22.25;100.00
4617;BME280;2321;42.704;23.384;2022-10-16T09:53:57;62246.03;;;22.25;100.00
4617;BME280;2321;42.704;23.384;2022-10-16T09:56:27;62246.03;;;22.25;100.00
4617;BME280;2321;42.704;23.384;2022-10-16T09:58:56;62246.03;;;21.24;100.00
4617;BME280;2321;42.704;23.384;2022-10-16T10:01:29;62246.03;;;-150.68;100.00
4617;BME280;2321;42.704;23.384;2022-10-16T10:03:58;62246.03;;;21.58;100.00
4617;BME280;2321;42.704;23.384;2022-10-16T10:06:30;62246.03;;;31.64;100.00
4617;BME280;2321;42.704;23.384;2022-10-16T10:09:04;62246.03;;;26.27;100.00
4617;BME280;2321;42.704;23.384;2022-10-16T10:11:44;62246.03;;;-150.68;100.00
4617;BME280;2321;42.704;23.384;2022-10-16T10:14:30;62246.03;;;-150.68;100.00
4617;BME280;2321;42.704;23.384;2022-10-16T10:17:18;62246.03;;;-150.68;100.00
4617;BME280;2321;42.704;23.384;2022-10-16T10:19:51;62246.03;;;192.81;100.00
4617;BME280;2321;42.704;23.384;2022-10-16T10:22:32;62246.03;;;21.58;100.00
4617;BME280;2321;42.704;23.384;2022-10-16T10:25:19;62246.03;;;23.59;100.00
4617;BME280;2321;42.704;23.384;2022-10-16T10:30:55;62246.03;;;192.81;100.00
4617;BME280;2321;42.704;23.384;2022-10-16T10:33:31;62246.03;;;-150.68;100.00
4617;BME280;2321;42.704;23.384;2022-10-16T10:36:08;62246.03;;;-150.68;100.00
4617;BME280;2321;42.704;23.384;2022-10-16T10:38:46;62246.03;;;-150.68;100.00
4617;BME280;2321;42.704;23.384;2022-10-16T10:41:33;62246.03;;;26.27;100.00
4617;BME280;2321;42.704;23.384;2022-10-16T10:44:09;62246.03;;;106.82;100.00
4617;BME280;2321;42.704;23.384;2022-10-16T10:46:41;62246.03;;;21.58;100.00
4617;BME280;2321;42.704;23.384;2022-10-16T10:49:23;62246.03;;;192.81;100.00
4617;BME280;2321;42.704;23.384;2022-10-16T10:52:02;62246.03;;;22.25;100.00
4617;BME280;2321;42.704;23.384;2022-10-16T10:54:36;62246.03;;;21.58;100.00
4617;BME280;2321;42.704;23.384;2022-10-16T10:57:10;62246.03;;;-150.68;100.00
4617;BME280;2321;42.704;23.384;2022-10-16T11:00:11;62246.03;;;-150.68;100.00
4617;BME280;2321;42.704;23.384;2022-10-16T11:02:48;62246.03;;;21.24;100.00
4617;BME280;2321;42.704;23.384;2022-10-16T11:05:29;62246.03;;;21.24;100.00
4617;BME280;2321;42.704;23.384;2022-10-16T11:07:59;62246.03;;;21.58;100.00
4617;BME280;2321;42.704;23.384;2022-10-16T11:10:30;62246.03;;;21.24;100.00
4617;BME280;2321;42.704;23.384;2022-10-16T11:13:04;62246.03;;;21.24;100.00
4617;BME280;2321;42.704;23.384;2022-10-16T11:15:38;62246.03;;;22.25;100.00
4617;BME280;2321;42.704;23.384;2022-10-16T11:18:11;62246.03;;;21.58;100.00
4617;BME280;2321;42.704;23.384;2022-10-16T11:20:45;62246.03;;;22.25;100.00
4617;BME280;2321;42.704;23.384;2022-10-16T11:23:17;62246.03;;;21.24;100.00
4617;BME280;2321;42.704;23.384;2022-10-16T11:28:14;62246.03;;;21.58;100.00
4617;BME280;2321;42.704;23.384;2022-10-16T11:30:46;62246.03;;;22.25;100.00
4617;BME280;2321;42.704;23.384;2022-10-16T11:33:27;62246.03;;;21.58;100.00
4617;BME280;2321;42.704;23.384;2022-10-16T11:36:01;62246.03;;;22.25;100.00
4617;BME280;2321;42.704;23.384;2022-10-16T11:38:34;62246.03;;;21.58;100.00
4617;BME280;2321;42.704;23.384;2022-10-16T11:41:10;62246.03;;;21.58;100.00
4617;BME280;2321;42.704;23.384;2022-10-16T11:43:43;62246.03;;;192.81;100.00
4617;BME280;2321;42.704;23.384;2022-10-16T11:46:18;62246.03;;;21.24;100.00
4617;BME280;2321;42.704;23.384;2022-10-16T11:51:21;62246.03;;;26.27;100.00
4617;BME280;2321;42.704;23.384;2022-10-16T11:53:58;62246.03;;;21.24;100.00
4617;BME280;2321;42.704;23.384;2022-10-16T11:56:26;62246.03;;;21.08;100.00
4617;BME280;2321;42.704;23.384;2022-10-16T11:58:57;62246.03;;;20.99;100.00
4617;BME280;2321;42.704;23.384;2022-10-16T12:01:31;62246.03;;;20.91;100.00
4617;BME280;2321;42.704;23.384;2022-10-16T12:04:07;62246.03;;;21.08;100.00
4617;BME280;2321;42.704;23.384;2022-10-16T12:06:44;62246.03;;;20.95;100.00
4617;BME280;2321;42.704;23.384;2022-10-16T12:09:19;62246.03;;;20.95;100.00
4617;BME280;2321;42.704;23.384;2022-10-16T12:11:48;62246.03;;;20.99;100.00
4617;BME280;2321;42.704;23.384;2022-10-16T12:14:34;62246.03;;;20.95;100.00
4617;BME280;2321;42.704;23.384;2022-10-16T12:17:03;62246.03;;;20.99;100.00
4617;BME280;2321;42.704;23.384;2022-10-16T12:19:31;62246.03;;;20.93;100.00
4617;BME280;2321;42.704;23.384;2022-10-16T12:22:02;62246.03;;;20.93;100.00
4617;BME280;2321;42.704;23.384;2022-10-16T12:24:33;62246.03;;;20.95;100.00
4617;BME280;2321;42.704;23.384;2022-10-16T12:27:01;62246.03;;;21.08;100.00
4617;BME280;2321;42.704;23.384;2022-10-16T12:29:33;62246.03;;;21.24;100.00
4617;BME280;2321;42.704;23.384;2022-10-16T12:32:02;62246.03;;;21.24;100.00
4617;BME280;2321;42.704;23.384;2022-10-16T12:34:35;62246.03;;;21.08;100.00
4617;BME280;2321;42.704;23.384;2022-10-16T12:37:12;62246.03;;;21.58;100.00
4617;BME280;2321;42.704;23.384;2022-10-16T12:42:32;62246.03;;;21.24;100.00
4617;BME280;2321;42.704;23.384;2022-10-16T12:45:01;62246.03;;;21.24;100.00
4617;BME280;2321;42.704;23.384;2022-10-16T12:47:47;62246.03;;;21.24;100.00
4617;BME280;2321;42.704;23.384;2022-10-16T12:50:30;62246.03;;;21.24;100.00
4617;BME280;2321;42.704;23.384;2022-10-16T12:53:00;62246.03;;;21.58;100.00
4617;BME280;2321;42.704;23.384;2022-10-16T12:55:33;62246.03;;;21.58;100.00
4617;BME280;2321;42.704;23.384;2022-10-16T12:58:14;62246.03;;;21.58;100.00
4617;BME280;2321;42.704;23.384;2022-10-16T13:00:50;62246.03;;;21.58;100.00
4617;BME280;2321;42.704;23.384;2022-10-16T13:03:35;62246.03;;;21.58;100.00
4617;BME280;2321;42.704;23.384;2022-10-16T13:06:19;62246.03;;;21.58;100.00
4617;BME280;2321;42.704;23.384;2022-10-16T13:09:02;62246.03;;;21.58;100.00
4617;BME280;2321;42.704;23.384;2022-10-16T13:11:53;62246.03;;;21.58;100.00
4617;BME280;2321;42.704;23.384;2022-10-16T13:14:35;62246.03;;;21.58;100.00
4617;BME280;2321;42.704;23.384;2022-10-16T13:17:09;62246.03;;;21.58;100.00
4617;BME280;2321;42.704;23.384;2022-10-16T13:19:43;62246.03;;;21.58;100.00
4617;BME280;2321;42.704;23.384;2022-10-16T13:22:17;62246.03;;;21.24;100.00
4617;BME280;2321;42.704;23.384;2022-10-16T13:24:58;62246.03;;;21.58;100.00
4617;BME280;2321;42.704;23.384;2022-10-16T13:27:34;62246.03;;;21.58;100.00
4617;BME280;2321;42.704;23.384;2022-10-16T13:30:11;62246.03;;;21.24;100.00
4617;BME280;2321;42.704;23.384;2022-10-16T13:32:40;62246.03;;;21.24;100.00
4617;BME280;2321;42.704;23.384;2022-10-16T13:35:20;62246.03;;;21.24;100.00
4617;BME280;2321;42.704;23.384;2022-10-16T13:37:48;62246.03;;;21.08;100.00
4617;BME280;2321;42.704;23.384;2022-10-16T13:40:22;62246.03;;;21.24;100.00
4617;BME280;2321;42.704;23.384;2022-10-16T13:42:53;62246.03;;;21.24;100.00
4617;BME280;2321;42.704;23.384;2022-10-16T13:45:23;62246.03;;;21.24;100.00
4617;BME280;2321;42.704;23.384;2022-10-16T13:48:01;62246.03;;;21.24;100.00